sensor_id;sensor_type;location;lat;lon;timestamp;pressure;altitude;pressure_sealevel;temperature;humidity
64133;BME280;53116;52.020;4.446;2022-07-12T00:01:08;102463.88;;;25.32;52.06
64133;BME280;53116;52.020;4.446;2022-07-12T00:03:34;102455.91;;;25.32;51.91
64133;BME280;53116;52.020;4.446;2022-07-12T00:06:01;102463.03;;;25.31;51.86
64133;BME280;53116;52.020;4.446;2022-07-12T00:08:27;102456.03;;;25.30;52.03
64133;BME280;53116;52.020;4.446;2022-07-12T00:10:53;102464.84;;;25.31;52.00
64133;BME280;53116;52.020;4.446;2022-07-12T00:13:19;102464.00;;;25.30;52.05
64133;BME280;53116;52.020;4.446;2022-07-12T00:15:46;102457.84;;;25.30;51.98
64133;BME280;53116;52.020;4.446;2022-07-12T00:18:11;102460.50;;;25.30;51.95
64133;BME280;53116;52.020;4.446;2022-07-12T00:20:37;102463.16;;;25.30;52.05
64133;BME280;53116;52.020;4.446;2022-07-12T00:23:04;102456.13;;;25.29;52.01
64133;BME280;53116;52.020;4.446;2022-07-12T00:25:30;102461.44;;;25.29;51.82
64133;BME280;53116;52.020;4.446;2022-07-12T00:27:55;102446.34;;;25.29;52.13
64133;BME280;53116;52.020;4.446;2022-07-12T00:30:21;102449.00;;;25.29;51.96
64133;BME280;53116;52.020;4.446;2022-07-12T00:32:48;102449.00;;;25.29;52.28
64133;BME280;53116;52.020;4.446;2022-07-12T00:35:14;102448.16;;;25.29;51.95
64133;BME280;53116;52.020;4.446;2022-07-12T00:37:40;102446.34;;;25.29;52.11
64133;BME280;53116;52.020;4.446;2022-07-12T00:40:07;102447.31;;;25.28;52.02
64133;BME280;53116;52.020;4.446;2022-07-12T00:42:38;102443.78;;;25.28;51.95
64133;BME280;53116;52.020;4.446;2022-07-12T00:45:05;102449.09;;;25.28;51.93
64133;BME280;53116;52.020;4.446;2022-07-12T00:47:34;102449.09;;;25.28;52.31
64133;BME280;53116;52.020;4.446;2022-07-12T00:50:22;102446.44;;;25.28;51.97
64133;BME280;53116;52.020;4.446;2022-07-12T00:52:51;102442.91;;;25.27;52.07
64133;BME280;53116;52.020;4.446;2022-07-12T00:55:18;102442.91;;;25.27;52.03
64133;BME280;53116;52.020;4.446;2022-07-12T00:57:44;102445.56;;;25.27;52.03
64133;BME280;53116;52.020;4.446;2022-07-12T01:00:14;102441.22;;;25.26;52.39
64133;BME280;53116;52.020;4.446;2022-07-12T01:02:41;102445.69;;;25.26;52.17
64133;BME280;53116;52.020;4.446;2022-07-12T01:05:08;102439.53;;;25.25;52.36
64133;BME280;53116;52.020;4.446;2022-07-12T01:07:34;102444.84;;;25.25;51.90
64133;BME280;53116;52.020;4.446;2022-07-12T01:10:00;102439.53;;;25.25;52.30
64133;BME280;53116;52.020;4.446;2022-07-12T01:12:26;102435.06;;;25.26;52.20
64133;BME280;53116;52.020;4.446;2022-07-12T01:14:52;102425.38;;;25.25;52.35
64133;BME280;53116;52.020;4.446;2022-07-12T01:17:24;102426.34;;;25.24;51.89
64133;BME280;53116;52.020;4.446;2022-07-12T01:19:51;102425.38;;;25.25;52.35
64133;BME280;53116;52.020;4.446;2022-07-12T01:22:18;102421.03;;;25.24;52.22
64133;BME280;53116;52.020;4.446;2022-07-12T01:24:45;102420.06;;;25.25;52.30
64133;BME280;53116;52.020;4.446;2022-07-12T01:27:12;102426.34;;;25.24;52.34
64133;BME280;53116;52.020;4.446;2022-07-12T01:29:39;102423.69;;;25.24;52.34
64133;BME280;53116;52.020;4.446;2022-07-12T01:32:09;102429.84;;;25.24;52.12
64133;BME280;53116;52.020;4.446;2022-07-12T01:34:52;102436.97;;;25.24;52.28
64133;BME280;53116;52.020;4.446;2022-07-12T01:37:20;102435.28;;;25.23;52.34
64133;BME280;53116;52.020;4.446;2022-07-12T01:39:48;102431.78;;;25.22;52.29
64133;BME280;53116;52.020;4.446;2022-07-12T01:42:14;102435.28;;;25.23;52.06
64133;BME280;53116;52.020;4.446;2022-07-12T01:44:40;102441.53;;;25.22;52.05
64133;BME280;53116;52.020;4.446;2022-07-12T01:47:06;102445.06;;;25.22;52.19
64133;BME280;53116;52.020;4.446;2022-07-12T01:49:32;102446.84;;;25.22;52.31
64133;BME280;53116;52.020;4.446;2022-07-12T01:51:58;102453.97;;;25.21;52.16
64133;BME280;53116;52.020;4.446;2022-07-12T01:54:24;102453.97;;;25.21;52.16
64133;BME280;53116;52.020;4.446;2022-07-12T01:56:51;102453.16;;;25.21;52.26
64133;BME280;53116;52.020;4.446;2022-07-12T01:59:18;102451.31;;;25.21;52.27
64133;BME280;53116;52.020;4.446;2022-07-12T02:01:45;102445.16;;;25.21;52.25
64133;BME280;53116;52.020;4.446;2022-07-12T02:04:11;102453.97;;;25.21;52.13
64133;BME280;53116;52.020;4.446;2022-07-12T02:06:37;102458.47;;;25.21;52.31
64133;BME280;53116;52.020;4.446;2022-07-12T02:09:04;102460.25;;;25.20;52.46
64133;BME280;53116;52.020;4.446;2022-07-12T02:11:30;102455.91;;;25.19;52.42
64133;BME280;53116;52.020;4.446;2022-07-12T02:13:56;102462.91;;;25.20;52.39
64133;BME280;53116;52.020;4.446;2022-07-12T02:16:21;102462.06;;;25.20;52.15
64133;BME280;53116;52.020;4.446;2022-07-12T02:18:47;102456.75;;;25.20;52.19
64133;BME280;53116;52.020;4.446;2022-07-12T02:21:12;102459.41;;;25.20;52.28
64133;BME280;53116;52.020;4.446;2022-07-12T02:23:38;102449.75;;;25.19;52.32
64133;BME280;53116;52.020;4.446;2022-07-12T02:26:03;102446.13;;;25.20;52.43
64133;BME280;53116;52.020;4.446;2022-07-12T02:28:29;102439.97;;;25.19;52.26
64133;BME280;53116;52.020;4.446;2022-07-12T02:30:54;102440.06;;;25.18;52.44
64133;BME280;53116;52.020;4.446;2022-07-12T02:33:20;102448.88;;;25.18;52.51
64133;BME280;53116;52.020;4.446;2022-07-12T02:35:45;102442.72;;;25.18;52.53
64133;BME280;53116;52.020;4.446;2022-07-12T02:38:11;102453.34;;;25.18;52.39
64133;BME280;53116;52.020;4.446;2022-07-12T02:40:38;102450.69;;;25.18;52.60
64133;BME280;53116;52.020;4.446;2022-07-12T02:43:18;102445.50;;;25.16;52.60
64133;BME280;53116;52.020;4.446;2022-07-12T02:45:44;102445.50;;;25.16;52.38
64133;BME280;53116;52.020;4.446;2022-07-12T02:48:10;102455.19;;;25.17;52.43
64133;BME280;53116;52.020;4.446;2022-07-12T02:50:37;102444.66;;;25.16;52.42
64133;BME280;53116;52.020;4.446;2022-07-12T02:53:04;102450.81;;;25.16;52.17
64133;BME280;53116;52.020;4.446;2022-07-12T02:55:29;102456.22;;;25.14;52.47
64133;BME280;53116;52.020;4.446;2022-07-12T02:57:55;102453.56;;;25.14;52.51
64133;BME280;53116;52.020;4.446;2022-07-12T03:00:21;102463.25;;;25.16;52.53
64133;BME280;53116;52.020;4.446;2022-07-12T03:02:46;102458.06;;;25.14;52.51
64133;BME280;53116;52.020;4.446;2022-07-12T03:05:12;102451.88;;;25.13;52.45
64133;BME280;53116;52.020;4.446;2022-07-12T03:07:38;102447.41;;;25.14;52.45
64133;BME280;53116;52.020;4.446;2022-07-12T03:10:04;102450.06;;;25.14;52.25
64133;BME280;53116;52.020;4.446;2022-07-12T03:12:30;102451.88;;;25.13;52.43
64133;BME280;53116;52.020;4.446;2022-07-12T03:14:56;102445.72;;;25.13;52.36
64133;BME280;53116;52.020;4.446;2022-07-12T03:17:22;102451.03;;;25.13;52.19
64133;BME280;53116;52.020;4.446;2022-07-12T03:19:47;102451.03;;;25.13;52.52
64133;BME280;53116;52.020;4.446;2022-07-12T03:22:13;102454.53;;;25.13;52.23
64133;BME280;53116;52.020;4.446;2022-07-12T03:24:38;102462.50;;;25.13;52.70
64133;BME280;53116;52.020;4.446;2022-07-12T03:27:04;102455.50;;;25.12;52.62
64133;BME280;53116;52.020;4.446;2022-07-12T03:29:30;102450.19;;;25.12;52.43
64133;BME280;53116;52.020;4.446;2022-07-12T03:31:56;102453.78;;;25.11;52.22
64133;BME280;53116;52.020;4.446;2022-07-12T03:34:21;102456.44;;;25.11;52.25
64133;BME280;53116;52.020;4.446;2022-07-12T03:36:47;102461.75;;;25.11;52.72
64133;BME280;53116;52.020;4.446;2022-07-12T03:39:12;102462.59;;;25.12;52.55
64133;BME280;53116;52.020;4.446;2022-07-12T03:41:38;102459.09;;;25.11;52.37
64133;BME280;53116;52.020;4.446;2022-07-12T03:44:04;102456.44;;;25.11;52.58
64133;BME280;53116;52.020;4.446;2022-07-12T03:46:31;102457.41;;;25.10;52.53
64133;BME280;53116;52.020;4.446;2022-07-12T03:48:58;102464.41;;;25.11;52.55
64133;BME280;53116;52.020;4.446;2022-07-12T03:51:25;102468.03;;;25.10;52.47
64133;BME280;53116;52.020;4.446;2022-07-12T03:53:51;102469.00;;;25.09;52.32
64133;BME280;53116;52.020;4.446;2022-07-12T03:56:16;102469.84;;;25.10;52.58
64133;BME280;53116;52.020;4.446;2022-07-12T03:59:01;102459.22;;;25.10;52.29
64133;BME280;53116;52.020;4.446;2022-07-12T04:01:27;102460.06;;;25.10;52.52
64133;BME280;53116;52.020;4.446;2022-07-12T04:03:53;102457.41;;;25.10;52.42
64133;BME280;53116;52.020;4.446;2022-07-12T04:06:18;102460.06;;;25.10;52.51
64133;BME280;53116;52.020;4.446;2022-07-12T04:08:43;102468.03;;;25.10;52.43
64133;BME280;53116;52.020;4.446;2022-07-12T04:11:08;102466.25;;;25.11;52.59
64133;BME280;53116;52.020;4.446;2022-07-12T04:13:34;102462.59;;;25.12;52.46
64133;BME280;53116;52.020;4.446;2022-07-12T04:16:00;102464.31;;;25.13;52.63
64133;BME280;53116;52.020;4.446;2022-07-12T04:18:26;102470.47;;;25.13;52.55
64133;BME280;53116;52.020;4.446;2022-07-12T04:20:52;102469.53;;;25.14;52.66
64133;BME280;53116;52.020;4.446;2022-07-12T04:23:17;102465.03;;;25.15;52.49
64133;BME280;53116;52.020;4.446;2022-07-12T04:25:43;102465.81;;;25.17;52.35
64133;BME280;53116;52.020;4.446;2022-07-12T04:28:08;102469.31;;;25.18;52.70
64133;BME280;53116;52.020;4.446;2022-07-12T04:30:34;102467.38;;;25.20;52.56
64133;BME280;53116;52.020;4.446;2022-07-12T04:32:59;102469.09;;;25.21;52.58
64133;BME280;53116;52.020;4.446;2022-07-12T04:35:25;102470.75;;;25.22;52.37
64133;BME280;53116;52.020;4.446;2022-07-12T04:37:51;102468.00;;;25.23;52.62
64133;BME280;53116;52.020;4.446;2022-07-12T04:40:16;102467.88;;;25.25;52.54
64133;BME280;53116;52.020;4.446;2022-07-12T04:42:42;102472.16;;;25.27;52.39
64133;BME280;53116;52.020;4.446;2022-07-12T04:45:08;102471.25;;;25.28;52.20
64133;BME280;53116;52.020;4.446;2022-07-12T04:47:37;102464.00;;;25.30;52.60
64133;BME280;53116;52.020;4.446;2022-07-12T04:50:05;102459.41;;;25.33;52.24
64133;BME280;53116;52.020;4.446;2022-07-12T04:52:32;102464.63;;;25.34;52.23
64133;BME280;53116;52.020;4.446;2022-07-12T04:54:57;102461.84;;;25.36;52.47
64133;BME280;53116;52.020;4.446;2022-07-12T04:57:23;102475.91;;;25.38;52.65
64133;BME280;53116;52.020;4.446;2022-07-12T04:59:48;102466.94;;;25.39;52.48
64133;BME280;53116;52.020;4.446;2022-07-12T05:02:14;102473.00;;;25.41;52.33
64133;BME280;53116;52.020;4.446;2022-07-12T05:04:39;102472.88;;;25.42;52.33
64133;BME280;53116;52.020;4.446;2022-07-12T05:07:04;102469.28;;;25.43;52.33
64133;BME280;53116;52.020;4.446;2022-07-12T05:09:30;102464.78;;;25.44;52.36
64133;BME280;53116;52.020;4.446;2022-07-12T05:11:56;102471.81;;;25.45;52.14
64133;BME280;53116;52.020;4.446;2022-07-12T05:14:22;102477.03;;;25.46;52.20
64133;BME280;53116;52.020;4.446;2022-07-12T05:16:48;102482.25;;;25.48;52.29
64133;BME280;53116;52.020;4.446;2022-07-12T05:19:13;102483.06;;;25.48;52.15
64133;BME280;53116;52.020;4.446;2022-07-12T05:21:41;102485.63;;;25.50;52.32
64133;BME280;53116;52.020;4.446;2022-07-12T05:24:08;102489.03;;;25.52;52.35
64133;BME280;53116;52.020;4.446;2022-07-12T05:26:34;102496.91;;;25.54;52.33
64133;BME280;53116;52.020;4.446;2022-07-12T05:29:00;102492.31;;;25.56;52.17
64133;BME280;53116;52.020;4.446;2022-07-12T05:31:25;102486.06;;;25.57;52.21
64133;BME280;53116;52.020;4.446;2022-07-12T05:33:52;102490.41;;;25.58;52.33
64133;BME280;53116;52.020;4.446;2022-07-12T05:36:18;102492.84;;;25.61;52.59
64133;BME280;53116;52.020;4.446;2022-07-12T05:38:43;102499.00;;;25.61;52.24
64133;BME280;53116;52.020;4.446;2022-07-12T05:41:08;102496.22;;;25.63;52.11
64133;BME280;53116;52.020;4.446;2022-07-12T05:43:34;102501.44;;;25.64;52.34
64133;BME280;53116;52.020;4.446;2022-07-12T05:45:59;102496.00;;;25.66;52.31
64133;BME280;53116;52.020;4.446;2022-07-12T05:48:25;102497.72;;;25.67;52.01
64133;BME280;53116;52.020;4.446;2022-07-12T05:50:51;102501.09;;;25.69;52.07
64133;BME280;53116;52.020;4.446;2022-07-12T05:53:17;102495.78;;;25.69;52.07
64133;BME280;53116;52.020;4.446;2022-07-12T05:55:53;102497.50;;;25.70;52.07
64133;BME280;53116;52.020;4.446;2022-07-12T05:58:20;102500.88;;;25.72;52.08
64133;BME280;53116;52.020;4.446;2022-07-12T06:00:46;102506.19;;;25.72;52.14
64133;BME280;53116;52.020;4.446;2022-07-12T06:03:14;102498.22;;;25.72;54.91
64133;BME280;53116;52.020;4.446;2022-07-12T06:05:40;102492.28;;;25.68;54.81
64133;BME280;53116;52.020;4.446;2022-07-12T06:08:05;102492.28;;;25.68;53.74
64133;BME280;53116;52.020;4.446;2022-07-12T06:10:31;102488.66;;;25.70;53.39
64133;BME280;53116;52.020;4.446;2022-07-12T06:12:57;102498.31;;;25.71;53.16
64133;BME280;53116;52.020;4.446;2022-07-12T06:15:23;102495.56;;;25.72;53.14
64133;BME280;53116;52.020;4.446;2022-07-12T06:17:49;102499.94;;;25.73;53.09
64133;BME280;53116;52.020;4.446;2022-07-12T06:20:14;102500.75;;;25.74;52.89
64133;BME280;53116;52.020;4.446;2022-07-12T06:22:40;102502.47;;;25.75;53.12
64133;BME280;53116;52.020;4.446;2022-07-12T06:25:06;102495.34;;;25.75;53.03
64133;BME280;53116;52.020;4.446;2022-07-12T06:27:32;102504.03;;;25.77;52.99
64133;BME280;53116;52.020;4.446;2022-07-12T06:29:58;102503.09;;;25.78;52.86
64133;BME280;53116;52.020;4.446;2022-07-12T06:32:23;102505.63;;;25.80;52.83
64133;BME280;53116;52.020;4.446;2022-07-12T06:34:49;102502.88;;;25.81;52.82
64133;BME280;53116;52.020;4.446;2022-07-12T06:37:15;102507.13;;;25.84;52.86
64133;BME280;53116;52.020;4.446;2022-07-12T06:39:40;102512.34;;;25.85;52.66
64133;BME280;53116;52.020;4.446;2022-07-12T06:42:06;102519.34;;;25.86;52.96
64133;BME280;53116;52.020;4.446;2022-07-12T06:44:33;102520.22;;;25.87;52.73
64133;BME280;53116;52.020;4.446;2022-07-12T06:46:59;102526.38;;;25.88;52.81
64133;BME280;53116;52.020;4.446;2022-07-12T06:49:25;102525.31;;;25.90;52.79
64133;BME280;53116;52.020;4.446;2022-07-12T06:51:52;102520.81;;;25.91;52.64
64133;BME280;53116;52.020;4.446;2022-07-12T06:54:18;102526.03;;;25.92;52.53
64133;BME280;53116;52.020;4.446;2022-07-12T06:56:43;102518.78;;;25.94;52.70
64133;BME280;53116;52.020;4.446;2022-07-12T06:59:09;102519.50;;;25.96;52.89
64133;BME280;53116;52.020;4.446;2022-07-12T07:01:37;102521.25;;;25.97;52.67
64133;BME280;53116;52.020;4.446;2022-07-12T07:04:03;102518.47;;;25.99;52.86
64133;BME280;53116;52.020;4.446;2022-07-12T07:06:30;102525.50;;;26.00;52.61
64133;BME280;53116;52.020;4.446;2022-07-12T07:08:55;102520.91;;;26.02;52.34
64133;BME280;53116;52.020;4.446;2022-07-12T07:11:21;102516.31;;;26.04;52.65
64133;BME280;53116;52.020;4.446;2022-07-12T07:13:47;102509.94;;;26.07;52.56
64133;BME280;53116;52.020;4.446;2022-07-12T07:16:13;102516.97;;;26.08;52.62
64133;BME280;53116;52.020;4.446;2022-07-12T07:18:39;102518.53;;;26.10;52.67
64133;BME280;53116;52.020;4.446;2022-07-12T07:21:06;102518.41;;;26.12;52.41
64133;BME280;53116;52.020;4.446;2022-07-12T07:23:32;102523.63;;;26.13;52.52
64133;BME280;53116;52.020;4.446;2022-07-12T07:25:58;102510.94;;;26.17;52.57
64133;BME280;53116;52.020;4.446;2022-07-12T07:28:24;102515.19;;;26.19;52.27
64133;BME280;53116;52.020;4.446;2022-07-12T07:30:49;102511.56;;;26.20;52.32
64133;BME280;53116;52.020;4.446;2022-07-12T07:33:21;102508.78;;;26.22;52.25
64133;BME280;53116;52.020;4.446;2022-07-12T07:35:48;102512.28;;;26.23;52.14
64133;BME280;53116;52.020;4.446;2022-07-12T07:38:16;102521.00;;;26.25;52.23
64133;BME280;53116;52.020;4.446;2022-07-12T07:40:42;102511.34;;;26.24;52.14
64133;BME280;53116;52.020;4.446;2022-07-12T07:43:08;102513.03;;;26.25;52.11
64133;BME280;53116;52.020;4.446;2022-07-12T07:45:34;102509.41;;;26.26;52.03
64133;BME280;53116;52.020;4.446;2022-07-12T07:47:59;102510.25;;;26.26;51.93
64133;BME280;53116;52.020;4.446;2022-07-12T07:50:25;102508.44;;;26.27;51.88
64133;BME280;53116;52.020;4.446;2022-07-12T07:52:50;102516.44;;;26.27;51.90
64133;BME280;53116;52.020;4.446;2022-07-12T07:55:17;102517.28;;;26.27;51.89
64133;BME280;53116;52.020;4.446;2022-07-12T07:57:43;102518.97;;;26.28;51.71
64133;BME280;53116;52.020;4.446;2022-07-12T08:00:10;102517.16;;;26.29;51.72
64133;BME280;53116;52.020;4.446;2022-07-12T08:02:35;102518.00;;;26.29;51.59
64133;BME280;53116;52.020;4.446;2022-07-12T08:05:02;102513.53;;;26.30;51.82
64133;BME280;53116;52.020;4.446;2022-07-12T08:07:28;102516.94;;;26.32;51.79
64133;BME280;53116;52.020;4.446;2022-07-12T08:09:54;102523.97;;;26.33;51.63
64133;BME280;53116;52.020;4.446;2022-07-12T08:12:19;102527.47;;;26.33;51.65
64133;BME280;53116;52.020;4.446;2022-07-12T08:14:45;102530.97;;;26.34;51.63
64133;BME280;53116;52.020;4.446;2022-07-12T08:17:10;102528.31;;;26.34;51.55
64133;BME280;53116;52.020;4.446;2022-07-12T08:19:36;102528.19;;;26.35;51.75
64133;BME280;53116;52.020;4.446;2022-07-12T08:22:01;102526.38;;;26.36;51.51
64133;BME280;53116;52.020;4.446;2022-07-12T08:24:28;102524.47;;;26.38;51.40
64133;BME280;53116;52.020;4.446;2022-07-12T08:26:53;102531.47;;;26.39;51.78
64133;BME280;53116;52.020;4.446;2022-07-12T08:29:19;102517.09;;;26.42;51.85
64133;BME280;53116;52.020;4.446;2022-07-12T08:31:44;102516.97;;;26.43;51.74
64133;BME280;53116;52.020;4.446;2022-07-12T08:34:11;102509.69;;;26.45;51.66
64133;BME280;53116;52.020;4.446;2022-07-12T08:36:37;102518.44;;;26.47;51.93
64133;BME280;53116;52.020;4.446;2022-07-12T08:39:03;102512.03;;;26.50;51.83
64133;BME280;53116;52.020;4.446;2022-07-12T08:41:29;102524.25;;;26.52;51.63
64133;BME280;53116;52.020;4.446;2022-07-12T08:43:55;102522.44;;;26.53;51.79
64133;BME280;53116;52.020;4.446;2022-07-12T08:46:20;102526.69;;;26.55;51.59
64133;BME280;53116;52.020;4.446;2022-07-12T08:48:46;102516.75;;;26.57;51.65
64133;BME280;53116;52.020;4.446;2022-07-12T08:51:14;102509.69;;;26.45;49.98
64133;BME280;53116;52.020;4.446;2022-07-12T08:53:40;102504.56;;;26.31;50.54
64133;BME280;53116;52.020;4.446;2022-07-12T08:56:07;102505.69;;;26.28;50.46
64133;BME280;53116;52.020;4.446;2022-07-12T08:58:33;102507.66;;;26.13;50.21
64133;BME280;53116;52.020;4.446;2022-07-12T09:00:58;102515.47;;;26.03;50.42
64133;BME280;53116;52.020;4.446;2022-07-12T09:03:25;102506.13;;;25.98;50.13
64133;BME280;53116;52.020;4.446;2022-07-12T09:05:54;102509.97;;;25.94;50.29
64133;BME280;53116;52.020;4.446;2022-07-12T09:08:38;102510.06;;;25.92;50.37
64133;BME280;53116;52.020;4.446;2022-07-12T09:11:04;102517.31;;;25.90;50.66
64133;BME280;53116;52.020;4.446;2022-07-12T09:13:50;102529.34;;;25.83;49.86
64133;BME280;53116;52.020;4.446;2022-07-12T09:16:35;102528.97;;;25.76;49.92
64133;BME280;53116;52.020;4.446;2022-07-12T09:19:12;102539.31;;;25.68;49.80
64133;BME280;53116;52.020;4.446;2022-07-12T09:21:52;102523.56;;;25.65;49.64
64133;BME280;53116;52.020;4.446;2022-07-12T09:24:19;102513.16;;;25.62;49.58
64133;BME280;53116;52.020;4.446;2022-07-12T09:26:45;102514.94;;;25.61;49.56
64133;BME280;53116;52.020;4.446;2022-07-12T09:29:13;102523.13;;;25.58;50.06
64133;BME280;53116;52.020;4.446;2022-07-12T09:31:44;102519.66;;;25.58;49.88
64133;BME280;53116;52.020;4.446;2022-07-12T09:34:30;102517.19;;;25.55;50.75
64133;BME280;53116;52.020;4.446;2022-07-12T09:37:14;102514.66;;;25.53;50.00
64133;BME280;53116;52.020;4.446;2022-07-12T09:39:41;102516.59;;;25.51;50.37
64133;BME280;53116;52.020;4.446;2022-07-12T09:42:08;102511.38;;;25.49;50.42
64133;BME280;53116;52.020;4.446;2022-07-12T09:44:36;102514.97;;;25.48;51.02
64133;BME280;53116;52.020;4.446;2022-07-12T09:47:02;102516.69;;;25.49;50.69
64133;BME280;53116;52.020;4.446;2022-07-12T09:49:28;102506.16;;;25.48;50.71
64133;BME280;53116;52.020;4.446;2022-07-12T09:51:56;102507.13;;;25.47;50.66
64133;BME280;53116;52.020;4.446;2022-07-12T09:54:26;102505.44;;;25.46;50.43
64133;BME280;53116;52.020;4.446;2022-07-12T09:57:02;102509.78;;;25.47;50.24
64133;BME280;53116;52.020;4.446;2022-07-12T09:59:29;102508.94;;;25.46;50.07
64133;BME280;53116;52.020;4.446;2022-07-12T10:02:00;102519.56;;;25.46;50.00
64133;BME280;53116;52.020;4.446;2022-07-12T10:04:29;102517.03;;;25.45;50.06
64133;BME280;53116;52.020;4.446;2022-07-12T10:06:56;102520.50;;;25.45;50.10
64133;BME280;53116;52.020;4.446;2022-07-12T10:09:23;102518.84;;;25.44;50.76
64133;BME280;53116;52.020;4.446;2022-07-12T10:11:49;102521.50;;;25.44;50.46
64133;BME280;53116;52.020;4.446;2022-07-12T10:14:15;102518.94;;;25.43;50.60
64133;BME280;53116;52.020;4.446;2022-07-12T10:16:42;102525.09;;;25.43;50.07
64133;BME280;53116;52.020;4.446;2022-07-12T10:21:51;102529.47;;;25.44;49.89
64133;BME280;53116;52.020;4.446;2022-07-12T10:29:42;102533.81;;;25.45;49.55
64133;BME280;53116;52.020;4.446;2022-07-12T10:32:22;102531.16;;;25.45;49.50
64133;BME280;53116;52.020;4.446;2022-07-12T10:35:01;102533.69;;;25.47;49.24
64133;BME280;53116;52.020;4.446;2022-07-12T10:37:28;102528.28;;;25.48;49.18
64133;BME280;53116;52.020;4.446;2022-07-12T10:45:32;102528.28;;;25.48;49.05
64133;BME280;53116;52.020;4.446;2022-07-12T10:48:03;102529.97;;;25.49;48.96
64133;BME280;53116;52.020;4.446;2022-07-12T10:56:07;102529.03;;;25.51;49.45
64133;BME280;53116;52.020;4.446;2022-07-12T10:58:36;102522.84;;;25.50;49.23
64133;BME280;53116;52.020;4.446;2022-07-12T11:01:04;102520.94;;;25.52;49.35
64133;BME280;53116;52.020;4.446;2022-07-12T11:03:30;102514.66;;;25.53;49.40
64133;BME280;53116;52.020;4.446;2022-07-12T11:06:02;102516.38;;;25.54;49.08
64133;BME280;53116;52.020;4.446;2022-07-12T11:08:31;102507.53;;;25.54;48.67
64133;BME280;53116;52.020;4.446;2022-07-12T11:10:58;102504.78;;;25.55;48.48
64133;BME280;53116;52.020;4.446;2022-07-12T11:13:24;102511.78;;;25.56;48.81
64133;BME280;53116;52.020;4.446;2022-07-12T11:15:58;102501.13;;;25.56;49.05
64133;BME280;53116;52.020;4.446;2022-07-12T11:18:31;102506.34;;;25.58;49.04
64133;BME280;53116;52.020;4.446;2022-07-12T11:20:58;102507.19;;;25.58;49.24
64133;BME280;53116;52.020;4.446;2022-07-12T11:23:24;102504.53;;;25.58;49.61
64133;BME280;53116;52.020;4.446;2022-07-12T11:25:59;102504.31;;;25.61;49.56
64133;BME280;53116;52.020;4.446;2022-07-12T11:28:26;102507.63;;;25.65;49.81
64133;BME280;53116;52.020;4.446;2022-07-12T11:30:54;102498.56;;;25.67;49.70
64133;BME280;53116;52.020;4.446;2022-07-12T11:33:26;102486.84;;;25.70;49.72
64133;BME280;53116;52.020;4.446;2022-07-12T11:35:55;102496.44;;;25.73;49.67
64133;BME280;53116;52.020;4.446;2022-07-12T11:38:25;102494.38;;;25.76;49.79
64133;BME280;53116;52.020;4.446;2022-07-12T11:40:55;102495.13;;;25.78;49.95
64133;BME280;53116;52.020;4.446;2022-07-12T11:43:25;102503.81;;;25.80;49.57
64133;BME280;53116;52.020;4.446;2022-07-12T11:45:52;102497.44;;;25.83;49.66
64133;BME280;53116;52.020;4.446;2022-07-12T11:48:19;102500.81;;;25.85;49.86
64133;BME280;53116;52.020;4.446;2022-07-12T11:50:45;102490.94;;;25.87;49.82
64133;BME280;53116;52.020;4.446;2022-07-12T11:53:21;102498.81;;;25.89;49.78
64133;BME280;53116;52.020;4.446;2022-07-12T11:55:48;102486.34;;;25.89;49.66
64133;BME280;53116;52.020;4.446;2022-07-12T11:58:16;102485.41;;;25.90;50.15
64133;BME280;53116;52.020;4.446;2022-07-12T12:00:43;102484.31;;;25.93;49.66
64133;BME280;53116;52.020;4.446;2022-07-12T12:03:10;102477.19;;;25.93;49.69
64133;BME280;53116;52.020;4.446;2022-07-12T12:05:37;102468.22;;;25.94;49.65
64133;BME280;53116;52.020;4.446;2022-07-12T12:08:05;102477.09;;;25.95;49.59
64133;BME280;53116;52.020;4.446;2022-07-12T12:10:31;102487.56;;;25.96;49.70
64133;BME280;53116;52.020;4.446;2022-07-12T12:12:57;102474.28;;;25.96;49.37
64133;BME280;53116;52.020;4.446;2022-07-12T12:15:25;102459.28;;;25.95;49.55
64133;BME280;53116;52.020;4.446;2022-07-12T12:17:56;102460.88;;;25.98;49.62
64133;BME280;53116;52.020;4.446;2022-07-12T12:20:25;102451.13;;;25.98;49.62
64133;BME280;53116;52.020;4.446;2022-07-12T12:22:56;102446.63;;;25.99;49.65
64133;BME280;53116;52.020;4.446;2022-07-12T12:25:23;102445.69;;;26.00;49.61
64133;BME280;53116;52.020;4.446;2022-07-12T12:27:57;102448.34;;;26.00;49.36
64133;BME280;53116;52.020;4.446;2022-07-12T12:30:23;102446.53;;;26.00;49.54
64133;BME280;53116;52.020;4.446;2022-07-12T12:32:57;102465.03;;;26.02;49.57
64133;BME280;53116;52.020;4.446;2022-07-12T12:35:30;102459.72;;;26.02;49.62
64133;BME280;53116;52.020;4.446;2022-07-12T12:37:59;102470.34;;;26.02;49.69
64133;BME280;53116;52.020;4.446;2022-07-12T12:40:27;102469.41;;;26.03;49.50
64133;BME280;53116;52.020;4.446;2022-07-12T12:43:10;102466.75;;;26.03;49.55
64133;BME280;53116;52.020;4.446;2022-07-12T12:45:54;102473.75;;;26.04;49.56
64133;BME280;53116;52.020;4.446;2022-07-12T12:48:22;102457.78;;;26.04;49.82
64133;BME280;53116;52.020;4.446;2022-07-12T12:50:50;102466.63;;;26.05;49.61
64133;BME280;53116;52.020;4.446;2022-07-12T12:53:25;102464.81;;;26.05;49.59
64133;BME280;53116;52.020;4.446;2022-07-12T12:55:52;102457.78;;;26.04;49.20
64133;BME280;53116;52.020;4.446;2022-07-12T12:58:20;102457.78;;;26.04;49.27
64133;BME280;53116;52.020;4.446;2022-07-12T13:00:47;102463.09;;;26.04;49.11
64133;BME280;53116;52.020;4.446;2022-07-12T13:03:15;102463.84;;;26.06;49.13
64133;BME280;53116;52.020;4.446;2022-07-12T13:05:45;102459.47;;;26.05;49.02
64133;BME280;53116;52.020;4.446;2022-07-12T13:08:12;102455.88;;;26.06;48.95
64133;BME280;53116;52.020;4.446;2022-07-12T13:10:39;102455.88;;;26.06;48.81